createdAt,value
2022-07-28T00:04:16.151Z,11.85
2022-07-28T00:09:15.447Z,11.93
2022-07-28T00:14:16.976Z,12.02
2022-07-28T00:19:22.883Z,11.83
2022-07-28T00:24:22.796Z,11.71
2022-07-28T00:29:16.204Z,11.47
2022-07-28T00:34:15.446Z,11.56
2022-07-28T00:39:15.098Z,11.46
2022-07-28T00:44:15.207Z,11.32
2022-07-28T00:49:15.040Z,11.59
2022-07-28T00:54:17.913Z,11.78
2022-07-28T00:59:14.750Z,11.35
2022-07-28T01:04:15.138Z,11.24
2022-07-28T01:09:14.690Z,11.28
2022-07-28T01:14:15.080Z,11.43
2022-07-28T01:19:14.658Z,11.17
2022-07-28T01:24:15.070Z,11.10
2022-07-28T01:29:14.520Z,11.07
2022-07-28T01:34:15.066Z,10.80
2022-07-28T01:39:14.332Z,11.03
2022-07-28T01:44:14.582Z,10.99
2022-07-28T01:49:14.211Z,10.70
2022-07-28T01:54:17.305Z,10.84
2022-07-28T01:59:14.209Z,10.86
2022-07-28T02:04:14.569Z,10.74
2022-07-28T02:09:14.006Z,10.58
2022-07-28T02:14:14.125Z,10.42
2022-07-28T02:19:13.813Z,10.37
2022-07-28T02:24:14.097Z,10.46
2022-07-28T02:29:33.485Z,10.68
2022-07-28T02:34:14.921Z,10.47
2022-07-28T02:39:13.462Z,10.40
2022-07-28T02:44:13.971Z,10.51
2022-07-28T02:49:13.489Z,10.59
2022-07-28T02:54:16.898Z,10.39
2022-07-28T02:59:13.209Z,10.10
2022-07-28T03:04:13.544Z,10.18
2022-07-28T03:09:13.018Z,10.26
2022-07-28T03:14:13.396Z,10.19
2022-07-28T03:19:13.833Z,10.01
2022-07-28T03:24:13.346Z,10.04
2022-07-28T03:29:12.783Z,10.18
2022-07-28T03:34:13.060Z,10.33
2022-07-28T03:39:12.650Z,10.47
2022-07-28T03:44:12.976Z,10.76
2022-07-28T03:49:12.715Z,10.59
2022-07-28T03:54:15.859Z,10.99
2022-07-28T03:59:12.363Z,11.44
2022-07-28T04:04:12.687Z,11.67
2022-07-28T04:09:12.396Z,12.77
2022-07-28T04:14:16.622Z,13.22
2022-07-28T04:19:13.158Z,13.79
2022-07-28T04:24:12.020Z,13.22
2022-07-28T04:29:11.995Z,13.55
2022-07-28T04:34:12.137Z,13.74
2022-07-28T04:39:11.939Z,14.01
2022-07-28T04:44:12.141Z,14.35
2022-07-28T04:49:12.229Z,14.39
2022-07-28T04:54:15.037Z,14.20
2022-07-28T04:59:11.944Z,13.96
2022-07-28T05:04:12.023Z,14.07
2022-07-28T05:09:19.371Z,14.65
2022-07-28T05:14:12.561Z,14.72
2022-07-28T05:19:11.342Z,14.64
2022-07-28T05:24:11.749Z,15.03
2022-07-28T05:29:11.207Z,15.56
2022-07-28T05:34:11.388Z,16.25
2022-07-28T05:39:11.124Z,15.96
2022-07-28T05:44:11.183Z,15.70
2022-07-28T05:49:11.022Z,15.89
2022-07-28T05:54:15.382Z,16.23
2022-07-28T05:59:10.914Z,16.07
2022-07-28T06:04:26.544Z,16.41
2022-07-28T06:09:11.808Z,18.28
2022-07-28T06:14:10.817Z,18.50
2022-07-28T06:19:10.568Z,19.68
2022-07-28T06:24:10.609Z,20.65
2022-07-28T06:29:10.379Z,20.95
2022-07-28T06:34:10.388Z,21.75
2022-07-28T06:39:10.268Z,21.67
2022-07-28T06:44:12.337Z,22.84
2022-07-28T06:49:10.309Z,22.90
2022-07-28T06:54:13.480Z,23.11
2022-07-28T06:59:10.018Z,21.99
2022-07-28T07:04:10.158Z,23.09
2022-07-28T07:09:09.882Z,23.62
2022-07-28T07:14:09.799Z,23.50
2022-07-28T07:19:15.444Z,23.79
2022-07-28T07:24:11.026Z,23.22
2022-07-28T07:29:09.723Z,23.57
2022-07-28T07:34:09.545Z,23.68
2022-07-28T07:39:09.490Z,23.82
2022-07-28T07:44:09.560Z,23.40
2022-07-28T07:49:09.390Z,24.16
2022-07-28T07:54:12.805Z,22.86
2022-07-28T07:59:09.224Z,23.75
2022-07-28T08:04:09.249Z,23.61
2022-07-28T08:09:09.151Z,22.71
2022-07-28T08:14:09.196Z,22.56
2022-07-28T08:19:09.023Z,22.86
2022-07-28T08:24:08.977Z,23.26
2022-07-28T08:29:08.908Z,23.15
2022-07-28T08:34:26.455Z,23.12
2022-07-28T08:39:09.759Z,22.84
2022-07-28T08:44:08.670Z,22.67
2022-07-28T08:49:08.792Z,22.59
2022-07-28T08:54:18.541Z,22.60
2022-07-28T08:59:08.471Z,22.38
2022-07-28T09:04:08.480Z,22.20
2022-07-28T09:09:08.388Z,22.28
2022-07-28T09:14:08.325Z,22.19
2022-07-28T09:19:08.245Z,22.06
2022-07-28T09:24:09.267Z,22.17
2022-07-28T09:29:08.251Z,22.32
2022-07-28T09:34:08.081Z,22.43
2022-07-28T09:39:07.945Z,22.16
2022-07-28T09:44:07.894Z,22.32
2022-07-28T09:49:07.981Z,22.53
2022-07-28T09:54:10.971Z,22.65
2022-07-28T09:59:07.740Z,22.47
2022-07-28T10:04:07.764Z,22.64
2022-07-28T10:09:07.509Z,22.97
2022-07-28T10:14:07.485Z,22.83
2022-07-28T10:19:07.399Z,22.78
2022-07-28T10:24:07.358Z,23.01
2022-07-28T10:29:07.276Z,22.83
2022-07-28T10:34:07.296Z,22.83
2022-07-28T10:39:07.150Z,23.20
2022-07-28T10:44:07.092Z,23.08
2022-07-28T10:53:16.661Z,23.50
2022-07-28T10:58:17.029Z,23.92
2022-07-28T11:03:16.232Z,24.17
2022-07-28T11:08:16.094Z,24.10
2022-07-28T11:13:15.869Z,24.16
2022-07-28T11:18:16.052Z,24.01
2022-07-28T11:23:16.041Z,24.42
2022-07-28T11:28:15.877Z,24.73
2022-07-28T11:33:23.273Z,24.87
2022-07-28T11:38:15.809Z,24.57
2022-07-28T11:43:19.494Z,24.35
2022-07-28T11:48:15.417Z,24.53
2022-07-28T11:53:15.350Z,24.60
2022-07-28T11:58:15.411Z,24.49
2022-07-28T12:03:15.385Z,24.45
2022-07-28T12:08:16.164Z,24.68
2022-07-28T12:13:15.311Z,24.47
2022-07-28T12:18:15.052Z,24.61
2022-07-28T12:23:14.909Z,24.91
2022-07-28T12:28:15.120Z,25.25
2022-07-28T12:33:14.833Z,25.38
2022-07-28T12:38:14.909Z,25.43
2022-07-28T12:43:17.704Z,25.19
2022-07-28T12:48:14.615Z,25.30
2022-07-28T12:53:14.918Z,25.65
2022-07-28T12:58:14.522Z,25.49
2022-07-28T13:03:14.501Z,25.89
2022-07-28T13:08:14.353Z,26.05
2022-07-28T13:13:14.398Z,26.01
2022-07-28T13:18:14.228Z,25.82
2022-07-28T13:23:14.169Z,25.79
2022-07-28T13:28:14.060Z,26.08
2022-07-28T13:33:14.260Z,26.09
2022-07-28T13:38:13.931Z,26.06
2022-07-28T13:43:18.078Z,26.29
2022-07-28T13:48:13.838Z,26.65
2022-07-28T13:53:13.803Z,26.55
2022-07-28T13:58:13.679Z,26.57
2022-07-28T14:03:14.164Z,26.57
2022-07-28T14:08:13.531Z,26.84
2022-07-28T14:13:13.488Z,26.72
2022-07-28T14:18:13.492Z,26.87
2022-07-28T14:23:13.369Z,26.86
2022-07-28T14:28:13.292Z,27.02
2022-07-28T14:33:13.496Z,27.23
2022-07-28T14:38:51.122Z,27.79
2022-07-28T14:43:17.201Z,28.04
2022-07-28T14:48:13.193Z,28.03
2022-07-28T14:53:13.326Z,27.94
2022-07-28T14:58:13.025Z,28.32
2022-07-28T15:03:12.940Z,28.25
2022-07-28T15:08:12.871Z,27.73
2022-07-28T15:13:20.608Z,27.73
2022-07-28T15:18:19.612Z,27.42
2022-07-28T15:23:12.606Z,27.58
2022-07-28T15:28:12.521Z,27.23
2022-07-28T15:33:13.624Z,28.35
2022-07-28T15:38:12.620Z,28.77
2022-07-28T15:43:15.344Z,28.68
2022-07-28T15:48:12.260Z,27.35
2022-07-28T15:53:12.257Z,27.35
2022-07-28T15:58:12.115Z,26.46
2022-07-28T16:03:14.346Z,26.21
2022-07-28T16:08:11.917Z,26.12
2022-07-28T16:13:11.961Z,26.04
2022-07-28T16:18:11.892Z,26.17
2022-07-28T16:23:11.993Z,25.93
2022-07-28T16:28:11.876Z,25.99
2022-07-28T16:33:11.691Z,25.98
2022-07-28T16:38:11.623Z,25.97
2022-07-28T16:43:14.703Z,25.80
2022-07-28T16:48:11.421Z,25.61
2022-07-28T16:53:11.381Z,25.52
2022-07-28T16:58:11.423Z,25.54
2022-07-28T17:03:11.481Z,25.56
2022-07-28T17:08:11.172Z,25.43
2022-07-28T17:13:11.154Z,25.37
2022-07-28T17:18:12.434Z,25.31
2022-07-28T17:23:10.993Z,25.30
2022-07-28T17:28:10.880Z,25.27
2022-07-28T17:33:10.858Z,25.20
2022-07-28T17:38:10.866Z,25.22
2022-07-28T17:43:13.753Z,25.07
2022-07-28T17:48:10.858Z,24.92
2022-07-28T17:53:10.825Z,24.90
2022-07-28T17:58:10.533Z,24.76
2022-07-28T18:03:11.480Z,24.71
2022-07-28T18:08:10.440Z,24.45
2022-07-28T18:13:10.434Z,24.35
2022-07-28T18:18:10.216Z,24.19
2022-07-28T18:23:11.868Z,24.12
2022-07-28T18:28:12.780Z,24.07
2022-07-28T18:33:12.318Z,23.89
2022-07-28T18:38:14.401Z,23.82
2022-07-28T18:43:13.473Z,23.32
2022-07-28T18:48:09.858Z,23.02
2022-07-28T18:53:10.633Z,22.87
2022-07-28T18:58:09.750Z,22.67
2022-07-28T19:03:15.247Z,22.50
2022-07-28T19:08:10.396Z,22.35
2022-07-28T19:13:13.149Z,22.20
2022-07-28T19:18:12.104Z,22.13
2022-07-28T19:23:09.389Z,22.01
2022-07-28T19:28:09.328Z,21.91
2022-07-28T19:33:09.308Z,21.81
2022-07-28T19:38:09.284Z,21.63
2022-07-28T19:43:12.113Z,21.38
2022-07-28T19:48:09.074Z,21.26
2022-07-28T19:53:17.270Z,21.14
2022-07-28T19:58:08.888Z,20.79
2022-07-28T20:04:37.349Z,20.59
2022-07-28T20:09:44.746Z,20.47
2022-07-28T20:14:37.241Z,20.23
2022-07-28T20:19:38.265Z,20.00
2022-07-28T20:24:37.060Z,19.87
2022-07-28T20:29:37.043Z,19.76
2022-07-28T20:34:36.897Z,19.73
2022-07-28T20:39:44.934Z,19.54
2022-07-28T20:44:38.372Z,19.32
2022-07-28T20:49:36.801Z,19.33
2022-07-28T20:54:39.782Z,19.23
2022-07-28T21:06:23.994Z,19.79
2022-07-28T21:14:39.759Z,20.13
2022-07-28T21:19:44.897Z,20.27
2022-07-28T21:25:48.556Z,20.39
2022-07-28T21:31:00.986Z,20.41
2022-07-28T21:37:38.773Z,20.51
2022-07-28T21:42:46.596Z,20.50
2022-07-28T21:47:38.664Z,20.47
2022-07-28T21:52:38.701Z,20.47
2022-07-28T21:57:38.554Z,20.42
2022-07-28T22:02:38.514Z,20.28
2022-07-28T22:07:47.825Z,20.02
2022-07-28T22:12:45.278Z,19.72
2022-07-28T22:17:38.247Z,19.66
2022-07-28T22:22:38.154Z,19.66
2022-07-28T22:27:41.145Z,19.68
2022-07-28T22:32:38.173Z,19.66
2022-07-28T22:37:39.464Z,19.66
2022-07-28T22:42:37.877Z,19.51
2022-07-28T22:47:38.058Z,19.35
2022-07-28T22:52:37.744Z,19.50
2022-07-28T22:57:37.770Z,19.17
2022-07-28T23:02:37.594Z,19.39
2022-07-28T23:07:53.515Z,19.39
2022-07-28T23:12:38.658Z,19.36
2022-07-28T23:17:44.956Z,19.15
2022-07-28T23:22:37.354Z,19.10
2022-07-28T23:27:40.407Z,19.25
2022-07-28T23:32:37.253Z,19.18
2022-07-28T23:37:37.236Z,19.24
2022-07-28T23:42:37.299Z,19.23
2022-07-28T23:47:37.051Z,19.20
2022-07-28T23:52:36.941Z,19.11
2022-07-28T23:57:38.012Z,19.02
